Time,TemperatureF,DewpointF,PressureIn,WindDirection,WindDirectionDegrees,WindSpeedMPH,WindSpeedGustMPH,Humidity,HourlyPrecipIn,Conditions,Clouds,dailyrainin,SoftwareType,DateUTC
2014-08-28 00:01:00,69.6,64.6,28.67,NNE,25,0.0,1.0,84,0.00,,SKC,0.00,VWS V15.00,2014-08-28 04:01:00,
2014-08-28 00:06:00,69.3,64.3,28.67,NNE,25,0.0,1.0,84,0.00,,SKC,0.00,VWS V15.00,2014-08-28 04:06:00,
2014-08-28 00:11:00,68.9,63.9,28.67,NNE,25,0.0,0.0,84,0.00,,SKC,0.00,VWS V15.00,2014-08-28 04:11:00,
2014-08-28 00:16:00,68.8,64.1,28.67,NNE,25,0.0,0.0,85,0.00,,SKC,0.00,VWS V15.00,2014-08-28 04:16:00,
2014-08-28 00:21:00,68.6,64.2,28.67,NNE,25,0.0,0.0,86,0.00,,SKC,0.00,VWS V15.00,2014-08-28 04:21:00,
2014-08-28 00:26:00,68.3,64.0,28.67,NNE,25,0.0,0.0,86,0.00,,SKC,0.00,VWS V15.00,2014-08-28 04:26:00,
2014-08-28 00:31:00,68.1,63.8,28.67,NNE,25,0.0,0.0,86,0.00,,SKC,0.00,VWS V15.00,2014-08-28 04:31:00,
2014-08-28 00:36:00,67.9,63.9,28.67,NNE,25,0.0,0.0,87,0.00,,SKC,0.00,VWS V15.00,2014-08-28 04:36:00,
2014-08-28 00:41:00,67.8,64.1,28.67,NNE,25,0.0,0.0,88,0.00,,SKC,0.00,VWS V15.00,2014-08-28 04:41:00,
2014-08-28 00:46:00,67.6,63.9,28.67,NNE,25,0.0,1.0,88,0.00,,SKC,0.00,VWS V15.00,2014-08-28 04:46:00,
2014-08-28 00:51:00,67.3,63.6,28.67,NNE,25,0.0,0.0,88,0.00,,SKC,0.00,VWS V15.00,2014-08-28 04:51:00,
2014-08-28 00:56:00,67.3,64.0,28.67,NNE,25,0.0,0.0,89,0.00,,SKC,0.00,VWS V15.00,2014-08-28 04:56:00,
2014-08-28 01:01:00,67.1,63.8,28.67,NNE,25,0.0,0.0,89,0.00,,SKC,0.00,VWS V15.00,2014-08-28 05:01:00,
2014-08-28 01:06:00,66.9,63.9,28.67,NNE,25,0.0,0.0,90,0.00,,SKC,0.00,VWS V15.00,2014-08-28 05:06:00,
2014-08-28 01:11:00,66.8,63.8,28.67,NNE,25,0.0,0.0,90,0.00,,SKC,0.00,VWS V15.00,2014-08-28 05:11:00,
2014-08-28 01:16:00,66.6,63.6,28.67,NNE,25,0.0,0.0,90,0.00,,SKC,0.00,VWS V15.00,2014-08-28 05:16:00,
2014-08-28 01:21:00,66.4,63.4,28.67,NNE,25,0.0,0.0,90,0.00,,SKC,0.00,VWS V15.00,2014-08-28 05:21:00,
2014-08-28 01:26:00,66.4,63.4,28.67,NNE,25,0.0,0.0,90,0.00,,SKC,0.00,VWS V15.00,2014-08-28 05:26:00,
2014-08-28 01:31:00,66.3,63.6,28.66,NNE,25,0.0,0.0,91,0.00,,SKC,0.00,VWS V15.00,2014-08-28 05:31:00,
2014-08-28 01:36:00,66.1,63.4,28.66,NNE,25,0.0,0.0,91,0.00,,SKC,0.00,VWS V15.00,2014-08-28 05:36:00,
2014-08-28 01:41:00,66.1,63.7,28.66,NNE,25,0.0,0.0,92,0.00,,SKC,0.00,VWS V15.00,2014-08-28 05:41:00,
2014-08-28 01:46:00,66.0,63.6,28.66,NNE,25,0.0,0.0,92,0.00,,SKC,0.00,VWS V15.00,2014-08-28 05:46:00,
2014-08-28 01:51:00,65.8,63.1,28.66,NNE,25,0.0,0.0,91,0.00,,SKC,0.00,VWS V15.00,2014-08-28 05:51:00,
2014-08-28 01:56:00,65.6,63.2,28.66,NNE,25,0.0,0.0,92,0.00,,SKC,0.00,VWS V15.00,2014-08-28 05:56:00,
2014-08-28 02:01:00,65.6,63.2,28.66,NNE,25,0.0,0.0,92,0.00,,SKC,0.00,VWS V15.00,2014-08-28 06:01:00,
2014-08-28 02:06:00,65.5,63.1,28.66,NNE,25,0.0,0.0,92,0.00,,SKC,0.00,VWS V15.00,2014-08-28 06:06:00,
2014-08-28 02:11:00,65.3,62.9,28.66,NNE,25,0.0,0.0,92,0.00,,SKC,0.00,VWS V15.00,2014-08-28 06:11:00,
2014-08-28 02:16:00,65.2,63.1,28.66,NNE,25,0.0,0.0,93,0.00,,SKC,0.00,VWS V15.00,2014-08-28 06:16:00,
2014-08-28 02:21:00,65.2,63.1,28.66,NNE,25,0.0,0.0,93,0.00,,SKC,0.00,VWS V15.00,2014-08-28 06:21:00,
2014-08-28 02:26:00,65.0,62.9,28.66,NNE,25,0.0,0.0,93,0.00,,SKC,0.00,VWS V15.00,2014-08-28 06:26:00,
2014-08-28 02:31:00,65.0,62.9,28.65,NNE,25,0.0,0.0,93,0.00,,SKC,0.00,VWS V15.00,2014-08-28 06:31:00,
2014-08-28 02:36:00,65.0,63.2,28.65,NNE,25,0.0,0.0,94,0.00,,SKC,0.00,VWS V15.00,2014-08-28 06:36:00,
2014-08-28 02:41:00,65.0,63.2,28.65,NNE,25,0.0,0.0,94,0.00,,SKC,0.00,VWS V15.00,2014-08-28 06:41:00,
2014-08-28 02:46:00,64.8,63.0,28.65,NNE,25,0.0,0.0,94,0.00,,SKC,0.00,VWS V15.00,2014-08-28 06:46:00,
2014-08-28 02:51:00,64.8,63.0,28.65,NNE,25,0.0,0.0,94,0.00,,SKC,0.00,VWS V15.00,2014-08-28 06:51:00,
2014-08-28 02:56:00,64.7,62.9,28.65,NNE,25,0.0,0.0,94,0.00,,SKC,0.00,VWS V15.00,2014-08-28 06:56:00,
2014-08-28 03:01:00,64.7,62.9,28.65,NNE,25,0.0,0.0,94,0.00,,SKC,0.00,VWS V15.00,2014-08-28 07:01:00,
2014-08-28 03:06:00,64.5,62.7,28.65,NNE,25,0.0,0.0,94,0.00,,SKC,0.00,VWS V15.00,2014-08-28 07:06:00,
2014-08-28 03:11:00,64.5,63.0,28.65,NNE,25,0.0,0.0,95,0.00,,SKC,0.00,VWS V15.00,2014-08-28 07:11:00,
2014-08-28 03:16:00,64.5,63.0,28.65,NNE,25,0.0,0.0,95,0.00,,SKC,0.00,VWS V15.00,2014-08-28 07:16:00,
2014-08-28 03:21:00,64.3,62.8,28.65,NNE,25,0.0,0.0,95,0.00,,SKC,0.00,VWS V15.00,2014-08-28 07:21:00,
2014-08-28 03:26:00,64.3,62.8,28.65,NNE,25,0.0,0.0,95,0.00,,SKC,0.00,VWS V15.00,2014-08-28 07:26:00,
2014-08-28 03:31:00,64.2,62.7,28.65,NNE,25,0.0,0.0,95,0.00,,SKC,0.00,VWS V15.00,2014-08-28 07:31:00,
2014-08-28 03:36:00,64.0,62.5,28.65,NNE,25,0.0,0.0,95,0.00,,SKC,0.00,VWS V15.00,2014-08-28 07:36:00,
2014-08-28 03:41:00,64.0,62.5,28.65,NNE,25,0.0,0.0,95,0.00,,SKC,0.00,VWS V15.00,2014-08-28 07:41:00,
2014-08-28 03:46:00,63.9,62.4,28.65,NNE,25,0.0,0.0,95,0.00,,SKC,0.00,VWS V15.00,2014-08-28 07:46:00,
2014-08-28 03:51:00,63.7,62.2,28.65,NNE,25,0.0,0.0,95,0.00,,SKC,0.00,VWS V15.00,2014-08-28 07:51:00,
2014-08-28 03:56:00,63.7,62.2,28.65,NNE,25,0.0,0.0,95,0.00,,SKC,0.00,VWS V15.00,2014-08-28 07:56:00,
2014-08-28 04:01:00,63.5,62.0,28.65,NNE,24,0.0,0.0,95,0.00,,SKC,0.00,VWS V15.00,2014-08-28 08:01:00,
2014-08-28 04:06:00,63.4,62.0,28.65,NNE,25,0.0,0.0,95,0.00,,SKC,0.00,VWS V15.00,2014-08-28 08:06:00,
2014-08-28 04:11:00,63.2,62.0,28.65,NNE,25,0.0,0.0,96,0.00,,SKC,0.00,VWS V15.00,2014-08-28 08:11:00,
2014-08-28 04:16:00,63.2,62.0,28.65,NNE,25,0.0,0.0,96,0.00,,SKC,0.00,VWS V15.00,2014-08-28 08:16:00,
2014-08-28 04:21:00,63.1,61.9,28.65,NNE,25,0.0,0.0,96,0.00,,SKC,0.00,VWS V15.00,2014-08-28 08:21:00,
2014-08-28 04:26:00,62.9,61.8,28.65,NNE,25,0.0,0.0,96,0.00,,SKC,0.00,VWS V15.00,2014-08-28 08:26:00,
2014-08-28 04:31:00,62.9,61.8,28.65,NNE,25,0.0,0.0,96,0.00,,SKC,0.00,VWS V15.00,2014-08-28 08:31:00,
2014-08-28 04:36:00,62.7,61.5,28.65,NNE,25,0.0,0.0,96,0.00,,SKC,0.00,VWS V15.00,2014-08-28 08:36:00,
2014-08-28 04:41:00,62.6,61.5,28.65,NNE,25,0.0,0.0,96,0.00,,SKC,0.00,VWS V15.00,2014-08-28 08:41:00,
2014-08-28 04:46:00,62.4,61.2,28.65,NNE,25,0.0,0.0,96,0.00,,SKC,0.00,VWS V15.00,2014-08-28 08:46:00,
2014-08-28 04:51:00,62.4,61.2,28.65,NNE,25,0.0,0.0,96,0.00,,SKC,0.00,VWS V15.00,2014-08-28 08:51:00,
2014-08-28 04:56:00,62.4,61.2,28.65,NNE,25,0.0,0.0,96,0.00,,SKC,0.00,VWS V15.00,2014-08-28 08:56:00,
2014-08-28 05:01:00,62.4,61.5,28.65,NNE,25,0.0,0.0,97,0.00,,SKC,0.00,VWS V15.00,2014-08-28 09:01:00,
2014-08-28 05:06:00,62.4,61.5,28.65,NNE,25,0.0,0.0,97,0.00,,SKC,0.00,VWS V15.00,2014-08-28 09:06:00,
2014-08-28 05:11:00,62.3,61.4,28.65,NNE,25,0.0,0.0,97,0.00,,SKC,0.00,VWS V15.00,2014-08-28 09:11:00,
2014-08-28 05:17:00,62.3,61.4,28.65,NNE,25,0.0,0.0,97,0.00,,SKC,0.00,VWS V15.00,2014-08-28 09:17:00,
2014-08-28 05:22:00,62.3,61.4,28.65,NNE,25,0.0,0.0,97,0.00,,SKC,0.00,VWS V15.00,2014-08-28 09:22:00,
2014-08-28 05:27:00,62.3,61.7,28.65,NNE,25,0.0,0.0,98,0.00,,SKC,0.00,VWS V15.00,2014-08-28 09:27:00,
2014-08-28 05:32:00,62.3,61.7,28.65,NNE,25,0.0,0.0,98,0.00,,SKC,0.00,VWS V15.00,2014-08-28 09:32:00,
2014-08-28 05:37:00,62.1,61.5,28.65,NNE,25,0.0,0.0,98,0.00,,SKC,0.00,VWS V15.00,2014-08-28 09:37:00,
2014-08-28 05:42:00,62.0,61.4,28.65,NNE,25,0.0,0.0,98,0.00,,SKC,0.00,VWS V15.00,2014-08-28 09:42:00,
2014-08-28 05:47:00,62.0,61.4,28.65,NNE,25,0.0,0.0,98,0.00,,SKC,0.00,VWS V15.00,2014-08-28 09:47:00,
2014-08-28 05:52:00,62.0,61.4,28.65,NNE,25,0.0,0.0,98,0.00,,SKC,0.00,VWS V15.00,2014-08-28 09:52:00,
2014-08-28 05:57:00,62.0,61.4,28.65,NNE,25,0.0,0.0,98,0.00,,SKC,0.00,VWS V15.00,2014-08-28 09:57:00,
2014-08-28 06:02:00,61.8,61.2,28.66,NNE,25,0.0,0.0,98,0.00,,SKC,0.00,VWS V15.00,2014-08-28 10:02:00,
2014-08-28 06:07:00,61.8,61.2,28.66,NNE,25,0.0,0.0,98,0.00,,SKC,0.00,VWS V15.00,2014-08-28 10:07:00,
2014-08-28 06:12:00,61.8,61.5,28.66,NNE,25,0.0,0.0,99,0.00,,SKC,0.00,VWS V15.00,2014-08-28 10:12:00,
2014-08-28 06:17:00,61.6,61.3,28.66,NNE,25,0.0,0.0,99,0.00,,SKC,0.00,VWS V15.00,2014-08-28 10:17:00,
2014-08-28 06:22:00,61.6,61.3,28.66,NNE,25,0.0,0.0,99,0.00,,SKC,0.00,VWS V15.00,2014-08-28 10:22:00,
2014-08-28 06:27:00,61.5,61.2,28.66,NNE,25,0.0,0.0,99,0.00,,SKC,0.00,VWS V15.00,2014-08-28 10:27:00,
2014-08-28 06:32:00,61.5,61.2,28.66,NNE,25,0.0,0.0,99,0.00,,SKC,0.00,VWS V15.00,2014-08-28 10:32:00,
2014-08-28 06:37:00,61.5,61.2,28.66,NNE,25,0.0,0.0,99,0.00,,SKC,0.00,VWS V15.00,2014-08-28 10:37:00,
2014-08-28 06:42:00,61.5,61.2,28.66,NNE,25,0.0,0.0,99,0.00,,SKC,0.00,VWS V15.00,2014-08-28 10:42:00,
2014-08-28 06:47:00,61.5,61.2,28.66,NNE,25,0.0,0.0,99,0.00,,SKC,0.00,VWS V15.00,2014-08-28 10:47:00,
2014-08-28 06:52:00,61.3,61.0,28.66,NNE,25,0.0,0.0,99,0.00,,SKC,0.00,VWS V15.00,2014-08-28 10:52:00,
2014-08-28 06:57:00,61.2,60.9,28.66,NNE,25,0.0,0.0,99,0.00,,SKC,0.00,VWS V15.00,2014-08-28 10:57:00,
2014-08-28 07:02:00,61.2,60.9,28.67,NNE,25,0.0,0.0,99,0.00,,SKC,0.00,VWS V15.00,2014-08-28 11:02:00,
2014-08-28 07:07:00,61.0,60.7,28.67,NNE,25,0.0,0.0,99,0.00,,SKC,0.00,VWS V15.00,2014-08-28 11:07:00,
2014-08-28 07:12:00,61.0,60.7,28.67,NNE,25,0.0,0.0,99,0.00,,SKC,0.00,VWS V15.00,2014-08-28 11:12:00,
2014-08-28 07:17:00,60.9,60.6,28.67,NNE,25,0.0,0.0,99,0.00,,SKC,0.00,VWS V15.00,2014-08-28 11:17:00,
2014-08-28 07:22:00,60.9,60.6,28.67,NNE,25,0.0,0.0,99,0.00,,SKC,0.00,VWS V15.00,2014-08-28 11:22:00,
2014-08-28 07:27:00,60.9,60.9,28.67,NNE,25,0.0,0.0,100,0.00,,SKC,0.00,VWS V15.00,2014-08-28 11:27:00,
2014-08-28 07:32:00,60.9,60.9,28.68,NNE,25,0.0,0.0,100,0.00,,SKC,0.00,VWS V15.00,2014-08-28 11:32:00,
2014-08-28 07:37:00,60.9,60.9,28.68,NNE,25,0.0,0.0,100,0.00,,SKC,0.00,VWS V15.00,2014-08-28 11:37:00,
2014-08-28 07:42:00,60.9,60.9,28.68,NNE,25,0.0,0.0,100,0.00,,SKC,0.00,VWS V15.00,2014-08-28 11:42:00,
2014-08-28 07:47:00,60.9,60.9,28.68,NNE,25,0.0,0.0,100,0.00,,SKC,0.00,VWS V15.00,2014-08-28 11:47:00,
2014-08-28 07:52:00,60.9,60.9,28.68,NNE,25,0.0,0.0,100,0.00,,SKC,0.00,VWS V15.00,2014-08-28 11:52:00,
2014-08-28 07:57:00,61.0,61.0,28.68,NNE,25,0.0,0.0,100,0.00,,SKC,0.00,VWS V15.00,2014-08-28 11:57:00,
2014-08-28 08:02:00,61.2,61.2,28.68,NNE,24,0.0,0.0,100,0.00,,SKC,0.00,VWS V15.00,2014-08-28 12:02:00,
2014-08-28 08:07:00,61.5,61.5,28.68,NNE,25,0.0,0.0,100,0.00,,SKC,0.00,VWS V15.00,2014-08-28 12:07:00,
2014-08-28 08:12:00,62.0,62.0,28.68,NNE,25,0.0,0.0,100,0.00,,SKC,0.00,VWS V15.00,2014-08-28 12:12:00,
2014-08-28 08:17:00,62.3,62.3,28.68,NNE,25,0.0,0.0,100,0.00,,SKC,0.00,VWS V15.00,2014-08-28 12:17:00,
2014-08-28 08:22:00,62.7,62.7,28.68,NNE,25,0.0,0.0,100,0.00,,SKC,0.00,VWS V15.00,2014-08-28 12:22:00,
2014-08-28 08:27:00,63.1,63.1,28.68,NNE,25,0.0,1.0,100,0.00,,SKC,0.00,VWS V15.00,2014-08-28 12:27:00,
2014-08-28 08:32:00,63.4,63.4,28.69,NNE,25,0.0,0.0,100,0.00,,SKC,0.00,VWS V15.00,2014-08-28 12:32:00,
2014-08-28 08:37:00,63.7,63.7,28.69,NNE,25,0.0,0.0,100,0.00,,SKC,0.00,VWS V15.00,2014-08-28 12:37:00,
2014-08-28 08:42:00,64.0,64.0,28.69,NNE,25,0.0,0.0,100,0.00,,SKC,0.00,VWS V15.00,2014-08-28 12:42:00,
2014-08-28 08:47:00,64.5,64.5,28.69,NNE,25,0.0,0.0,100,0.00,,SKC,0.00,VWS V15.00,2014-08-28 12:47:00,
2014-08-28 08:52:00,65.0,65.0,28.69,NNE,25,0.0,0.0,100,0.00,,SKC,0.00,VWS V15.00,2014-08-28 12:52:00,
2014-08-28 08:57:00,65.5,65.5,28.69,NNE,25,0.0,0.0,100,0.00,,SKC,0.00,VWS V15.00,2014-08-28 12:57:00,
2014-08-28 09:02:00,66.0,65.7,28.69,NNE,25,0.0,1.0,99,0.00,,SKC,0.00,VWS V15.00,2014-08-28 13:02:00,
2014-08-28 09:07:00,66.3,66.0,28.69,NNE,25,0.0,1.0,99,0.00,,SKC,0.00,VWS V15.00,2014-08-28 13:07:00,
2014-08-28 09:12:00,66.8,65.9,28.69,NNE,25,0.0,0.0,97,0.00,,SKC,0.00,VWS V15.00,2014-08-28 13:12:00,
2014-08-28 09:17:00,67.1,65.9,28.68,NNE,25,0.0,0.0,96,0.00,,SKC,0.00,VWS V15.00,2014-08-28 13:17:00,
2014-08-28 09:22:00,67.6,66.1,28.68,NNE,25,0.0,0.0,95,0.00,,SKC,0.00,VWS V15.00,2014-08-28 13:22:00,
2014-08-28 09:27:00,68.3,66.8,28.68,NNE,25,0.0,0.0,95,0.00,,SKC,0.00,VWS V15.00,2014-08-28 13:27:00,
2014-08-28 09:32:00,68.9,66.2,28.68,NNE,25,0.0,0.0,91,0.00,,SKC,0.00,VWS V15.00,2014-08-28 13:32:00,
2014-08-28 09:37:00,69.8,65.4,28.68,NNE,24,0.0,0.0,86,0.00,,SKC,0.00,VWS V15.00,2014-08-28 13:37:00,
2014-08-28 09:42:00,70.6,65.2,28.68,NNE,24,0.0,0.0,83,0.00,,SKC,0.00,VWS V15.00,2014-08-28 13:42:00,
2014-08-28 09:47:00,71.3,65.5,28.68,NNE,24,0.0,0.0,82,0.00,,SKC,0.00,VWS V15.00,2014-08-28 13:47:00,
2014-08-28 09:52:00,72.1,65.9,28.68,NNE,24,0.0,0.0,81,0.00,,SKC,0.00,VWS V15.00,2014-08-28 13:52:00,
2014-08-28 09:57:00,72.8,65.6,28.68,NNE,27,0.0,0.0,78,0.00,,SKC,0.00,VWS V15.00,2014-08-28 13:57:00,
2014-08-28 10:02:00,73.5,65.5,28.68,NNE,27,0.0,0.0,76,0.00,,SKC,0.00,VWS V15.00,2014-08-28 14:02:00,
2014-08-28 10:07:00,74.4,66.3,28.68,NNE,26,0.0,1.0,76,0.00,,SKC,0.00,VWS V15.00,2014-08-28 14:07:00,
2014-08-28 10:12:00,74.9,67.2,28.68,NNE,27,0.0,1.0,77,0.00,,SKC,0.00,VWS V15.00,2014-08-28 14:12:00,
2014-08-28 10:17:00,75.6,66.3,28.68,NNE,27,0.0,0.0,73,0.00,,SKC,0.00,VWS V15.00,2014-08-28 14:17:00,
2014-08-28 10:22:00,76.3,67.0,28.68,NNE,27,0.0,0.0,73,0.00,,SKC,0.00,VWS V15.00,2014-08-28 14:22:00,
2014-08-28 10:27:00,77.0,66.5,28.68,NNE,27,0.0,1.0,70,0.00,,SKC,0.00,VWS V15.00,2014-08-28 14:27:00,
2014-08-28 10:32:00,77.9,65.6,28.69,NNE,27,0.0,0.0,66,0.00,,SKC,0.00,VWS V15.00,2014-08-28 14:32:00,
2014-08-28 10:37:00,78.6,65.4,28.69,NNE,27,0.0,0.0,64,0.00,,SKC,0.00,VWS V15.00,2014-08-28 14:37:00,
2014-08-28 10:42:00,79.6,66.4,28.69,NNE,28,0.0,1.0,64,0.00,,SKC,0.00,VWS V15.00,2014-08-28 14:42:00,
2014-08-28 10:47:00,80.5,65.8,28.69,NNE,28,0.0,0.0,61,0.00,,SKC,0.00,VWS V15.00,2014-08-28 14:47:00,
2014-08-28 10:52:00,81.1,66.4,28.69,NNE,28,0.0,0.0,61,0.00,,SKC,0.00,VWS V15.00,2014-08-28 14:52:00,
2014-08-28 10:57:00,81.4,65.7,28.69,NNE,24,0.0,0.0,59,0.00,,SKC,0.00,VWS V15.00,2014-08-28 14:57:00,
2014-08-28 11:02:00,82.0,65.8,28.69,NNE,24,0.0,0.0,58,0.00,,SKC,0.00,VWS V15.00,2014-08-28 15:02:00,
2014-08-28 11:07:00,82.6,65.8,28.69,NNE,24,0.0,3.0,57,0.00,,SKC,0.00,VWS V15.00,2014-08-28 15:07:00,
2014-08-28 11:12:00,83.0,63.6,28.69,NNE,30,0.0,1.0,52,0.00,,SKC,0.00,VWS V15.00,2014-08-28 15:12:00,
2014-08-28 11:17:00,83.4,64.5,28.68,NNE,26,0.0,0.0,53,0.00,,SKC,0.00,VWS V15.00,2014-08-28 15:17:00,
2014-08-28 11:22:00,84.0,62.8,28.68,NNE,28,0.0,0.0,49,0.00,,SKC,0.00,VWS V15.00,2014-08-28 15:22:00,
2014-08-28 11:27:00,84.1,62.3,28.68,NNE,21,0.0,0.0,48,0.00,,SKC,0.00,VWS V15.00,2014-08-28 15:27:00,
2014-08-28 11:32:00,84.5,63.3,28.69,NNE,21,0.0,0.0,49,0.00,,SKC,0.00,VWS V15.00,2014-08-28 15:32:00,
2014-08-28 11:37:00,84.7,61.7,28.69,NNE,28,0.0,0.0,46,0.00,,SKC,0.00,VWS V15.00,2014-08-28 15:37:00,
2014-08-28 11:42:00,84.9,61.2,28.69,NNE,23,0.0,0.0,45,0.00,,SKC,0.00,VWS V15.00,2014-08-28 15:42:00,
2014-08-28 11:47:00,85.3,61.6,28.68,NNE,24,0.0,0.0,45,0.00,,SKC,0.00,VWS V15.00,2014-08-28 15:47:00,
2014-08-28 11:52:00,85.5,61.1,28.68,NNE,24,0.0,1.0,44,0.00,,SKC,0.00,VWS V15.00,2014-08-28 15:52:00,
2014-08-28 11:57:00,85.7,62.6,28.68,NNE,24,0.0,0.0,46,0.00,,SKC,0.00,VWS V15.00,2014-08-28 15:57:00,
2014-08-28 12:02:00,85.9,63.3,28.68,NNE,24,0.0,0.0,47,0.00,,SKC,0.00,VWS V15.00,2014-08-28 16:02:00,
2014-08-28 12:07:00,85.7,61.3,28.68,NNE,19,0.0,0.0,44,0.00,,SKC,0.00,VWS V15.00,2014-08-28 16:07:00,
2014-08-28 12:12:00,85.9,60.2,28.68,NNE,26,0.0,0.0,42,0.00,,SKC,0.00,VWS V15.00,2014-08-28 16:12:00,